sensor_id;sensor_type;location;lat;lon;timestamp;P1;durP1;ratioP1;P2;durP2;ratioP2
7685;SDS011;3885;51.474;-2.576;2022-09-09T00:00:44;5.40;;;2.93;;
7685;SDS011;3885;51.474;-2.576;2022-09-09T00:03:16;4.53;;;2.80;;
7685;SDS011;3885;51.474;-2.576;2022-09-09T00:05:48;2.73;;;2.53;;
7685;SDS011;3885;51.474;-2.576;2022-09-09T00:08:19;7.27;;;3.43;;
7685;SDS011;3885;51.474;-2.576;2022-09-09T00:10:48;3.27;;;2.70;;
7685;SDS011;3885;51.474;-2.576;2022-09-09T00:13:19;14.10;;;3.67;;
7685;SDS011;3885;51.474;-2.576;2022-09-09T00:15:52;5.00;;;3.00;;
7685;SDS011;3885;51.474;-2.576;2022-09-09T00:18:24;3.30;;;2.40;;
7685;SDS011;3885;51.474;-2.576;2022-09-09T00:20:55;4.13;;;2.50;;
7685;SDS011;3885;51.474;-2.576;2022-09-09T00:23:25;5.87;;;3.40;;
7685;SDS011;3885;51.474;-2.576;2022-09-09T00:25:58;4.60;;;2.63;;
7685;SDS011;3885;51.474;-2.576;2022-09-09T00:28:27;9.03;;;4.03;;
7685;SDS011;3885;51.474;-2.576;2022-09-09T00:30:58;4.90;;;3.50;;
7685;SDS011;3885;51.474;-2.576;2022-09-09T00:33:27;5.13;;;2.77;;
7685;SDS011;3885;51.474;-2.576;2022-09-09T00:35:57;5.47;;;2.60;;
7685;SDS011;3885;51.474;-2.576;2022-09-09T00:38:26;4.27;;;3.20;;
7685;SDS011;3885;51.474;-2.576;2022-09-09T00:40:58;5.33;;;2.60;;
7685;SDS011;3885;51.474;-2.576;2022-09-09T00:43:28;4.40;;;2.23;;
7685;SDS011;3885;51.474;-2.576;2022-09-09T00:46:03;2.27;;;2.17;;
7685;SDS011;3885;51.474;-2.576;2022-09-09T00:48:34;2.17;;;1.97;;
7685;SDS011;3885;51.474;-2.576;2022-09-09T00:51:05;5.43;;;2.10;;
7685;SDS011;3885;51.474;-2.576;2022-09-09T00:53:37;2.00;;;1.87;;
7685;SDS011;3885;51.474;-2.576;2022-09-09T00:56:09;2.23;;;1.80;;
7685;SDS011;3885;51.474;-2.576;2022-09-09T00:58:40;1.60;;;1.60;;
7685;SDS011;3885;51.474;-2.576;2022-09-09T01:01:09;1.63;;;1.53;;
7685;SDS011;3885;51.474;-2.576;2022-09-09T01:03:38;3.60;;;1.77;;
7685;SDS011;3885;51.474;-2.576;2022-09-09T01:06:15;2.10;;;1.90;;
7685;SDS011;3885;51.474;-2.576;2022-09-09T01:08:56;2.40;;;1.60;;
7685;SDS011;3885;51.474;-2.576;2022-09-09T01:11:27;5.50;;;1.77;;
7685;SDS011;3885;51.474;-2.576;2022-09-09T01:14:01;3.63;;;1.73;;
7685;SDS011;3885;51.474;-2.576;2022-09-09T01:16:31;8.13;;;1.77;;
7685;SDS011;3885;51.474;-2.576;2022-09-09T01:18:59;3.33;;;1.50;;
7685;SDS011;3885;51.474;-2.576;2022-09-09T01:21:30;2.20;;;2.00;;
7685;SDS011;3885;51.474;-2.576;2022-09-09T01:24:04;1.53;;;1.43;;
7685;SDS011;3885;51.474;-2.576;2022-09-09T01:26:35;1.63;;;1.53;;
7685;SDS011;3885;51.474;-2.576;2022-09-09T01:29:06;2.60;;;1.33;;
7685;SDS011;3885;51.474;-2.576;2022-09-09T01:31:35;6.80;;;1.80;;
7685;SDS011;3885;51.474;-2.576;2022-09-09T01:34:04;1.97;;;1.57;;
7685;SDS011;3885;51.474;-2.576;2022-09-09T01:36:37;1.97;;;1.87;;
7685;SDS011;3885;51.474;-2.576;2022-09-09T01:39:05;3.53;;;1.73;;
7685;SDS011;3885;51.474;-2.576;2022-09-09T01:41:32;2.70;;;2.03;;
7685;SDS011;3885;51.474;-2.576;2022-09-09T01:44:01;3.13;;;1.50;;
7685;SDS011;3885;51.474;-2.576;2022-09-09T01:46:29;1.40;;;1.30;;
7685;SDS011;3885;51.474;-2.576;2022-09-09T01:48:56;1.20;;;1.20;;
7685;SDS011;3885;51.474;-2.576;2022-09-09T01:51:24;1.60;;;1.50;;
7685;SDS011;3885;51.474;-2.576;2022-09-09T01:53:51;3.27;;;1.47;;
7685;SDS011;3885;51.474;-2.576;2022-09-09T01:56:21;1.67;;;1.57;;
7685;SDS011;3885;51.474;-2.576;2022-09-09T01:58:57;1.90;;;1.80;;
7685;SDS011;3885;51.474;-2.576;2022-09-09T02:01:32;1.50;;;1.37;;
7685;SDS011;3885;51.474;-2.576;2022-09-09T02:04:10;3.77;;;1.77;;
7685;SDS011;3885;51.474;-2.576;2022-09-09T02:06:42;1.83;;;1.73;;
7685;SDS011;3885;51.474;-2.576;2022-09-09T02:09:12;3.17;;;2.90;;
7685;SDS011;3885;51.474;-2.576;2022-09-09T02:11:40;4.37;;;1.40;;
7685;SDS011;3885;51.474;-2.576;2022-09-09T02:14:11;1.40;;;1.30;;
7685;SDS011;3885;51.474;-2.576;2022-09-09T02:16:42;1.60;;;1.50;;
7685;SDS011;3885;51.474;-2.576;2022-09-09T02:19:10;1.77;;;1.67;;
7685;SDS011;3885;51.474;-2.576;2022-09-09T02:21:40;3.17;;;1.20;;
7685;SDS011;3885;51.474;-2.576;2022-09-09T02:24:08;1.70;;;1.27;;
7685;SDS011;3885;51.474;-2.576;2022-09-09T02:26:37;4.73;;;1.50;;
7685;SDS011;3885;51.474;-2.576;2022-09-09T02:29:07;1.57;;;1.47;;
7685;SDS011;3885;51.474;-2.576;2022-09-09T02:31:36;1.43;;;1.33;;
7685;SDS011;3885;51.474;-2.576;2022-09-09T02:34:05;1.50;;;1.50;;
7685;SDS011;3885;51.474;-2.576;2022-09-09T02:36:34;2.83;;;1.60;;
7685;SDS011;3885;51.474;-2.576;2022-09-09T02:39:04;2.60;;;1.73;;
7685;SDS011;3885;51.474;-2.576;2022-09-09T02:41:35;7.40;;;1.80;;
7685;SDS011;3885;51.474;-2.576;2022-09-09T02:44:05;4.60;;;1.90;;
7685;SDS011;3885;51.474;-2.576;2022-09-09T02:46:36;3.57;;;2.00;;
7685;SDS011;3885;51.474;-2.576;2022-09-09T02:49:08;2.83;;;1.27;;
7685;SDS011;3885;51.474;-2.576;2022-09-09T02:51:40;2.90;;;1.37;;
7685;SDS011;3885;51.474;-2.576;2022-09-09T02:54:10;1.33;;;1.10;;
7685;SDS011;3885;51.474;-2.576;2022-09-09T02:56:48;1.63;;;1.53;;
7685;SDS011;3885;51.474;-2.576;2022-09-09T02:59:16;0.87;;;0.87;;
7685;SDS011;3885;51.474;-2.576;2022-09-09T03:01:43;1.23;;;1.00;;
7685;SDS011;3885;51.474;-2.576;2022-09-09T03:04:13;4.30;;;1.33;;
7685;SDS011;3885;51.474;-2.576;2022-09-09T03:06:40;2.87;;;1.37;;
7685;SDS011;3885;51.474;-2.576;2022-09-09T03:09:08;10.50;;;1.10;;
7685;SDS011;3885;51.474;-2.576;2022-09-09T03:11:35;1.20;;;1.10;;
7685;SDS011;3885;51.474;-2.576;2022-09-09T03:14:03;1.00;;;1.00;;
7685;SDS011;3885;51.474;-2.576;2022-09-09T03:16:30;2.10;;;1.57;;
7685;SDS011;3885;51.474;-2.576;2022-09-09T03:18:59;1.20;;;1.07;;
7685;SDS011;3885;51.474;-2.576;2022-09-09T03:21:27;3.30;;;1.00;;
7685;SDS011;3885;51.474;-2.576;2022-09-09T03:23:55;3.23;;;1.43;;
7685;SDS011;3885;51.474;-2.576;2022-09-09T03:26:22;1.87;;;1.20;;
7685;SDS011;3885;51.474;-2.576;2022-09-09T03:28:49;2.50;;;1.53;;
7685;SDS011;3885;51.474;-2.576;2022-09-09T03:31:17;2.00;;;1.00;;
7685;SDS011;3885;51.474;-2.576;2022-09-09T03:33:44;4.00;;;1.43;;
7685;SDS011;3885;51.474;-2.576;2022-09-09T03:36:11;0.90;;;0.90;;
7685;SDS011;3885;51.474;-2.576;2022-09-09T03:38:40;1.03;;;1.03;;
7685;SDS011;3885;51.474;-2.576;2022-09-09T03:41:07;8.20;;;1.60;;
7685;SDS011;3885;51.474;-2.576;2022-09-09T03:43:34;1.23;;;1.13;;
7685;SDS011;3885;51.474;-2.576;2022-09-09T03:46:02;2.60;;;1.60;;
7685;SDS011;3885;51.474;-2.576;2022-09-09T03:48:30;1.60;;;1.20;;
7685;SDS011;3885;51.474;-2.576;2022-09-09T03:50:57;1.43;;;1.20;;
7685;SDS011;3885;51.474;-2.576;2022-09-09T03:53:26;1.10;;;1.10;;
7685;SDS011;3885;51.474;-2.576;2022-09-09T03:55:55;3.27;;;1.60;;
7685;SDS011;3885;51.474;-2.576;2022-09-09T03:58:25;1.50;;;1.40;;
7685;SDS011;3885;51.474;-2.576;2022-09-09T04:00:53;3.27;;;1.47;;
7685;SDS011;3885;51.474;-2.576;2022-09-09T04:03:21;1.13;;;1.03;;
7685;SDS011;3885;51.474;-2.576;2022-09-09T04:05:49;1.10;;;1.07;;
7685;SDS011;3885;51.474;-2.576;2022-09-09T04:08:17;2.50;;;1.43;;
7685;SDS011;3885;51.474;-2.576;2022-09-09T04:10:44;1.10;;;1.10;;
7685;SDS011;3885;51.474;-2.576;2022-09-09T04:13:14;4.00;;;1.23;;
7685;SDS011;3885;51.474;-2.576;2022-09-09T04:15:42;1.37;;;1.27;;
7685;SDS011;3885;51.474;-2.576;2022-09-09T04:18:10;4.57;;;1.27;;
7685;SDS011;3885;51.474;-2.576;2022-09-09T04:20:37;1.40;;;1.30;;
7685;SDS011;3885;51.474;-2.576;2022-09-09T04:23:05;2.83;;;1.30;;
7685;SDS011;3885;51.474;-2.576;2022-09-09T04:25:32;2.10;;;1.33;;
7685;SDS011;3885;51.474;-2.576;2022-09-09T04:27:59;2.80;;;1.33;;
7685;SDS011;3885;51.474;-2.576;2022-09-09T04:30:29;1.17;;;1.07;;
7685;SDS011;3885;51.474;-2.576;2022-09-09T04:32:56;1.23;;;1.13;;
7685;SDS011;3885;51.474;-2.576;2022-09-09T04:35:24;3.90;;;1.30;;
7685;SDS011;3885;51.474;-2.576;2022-09-09T04:37:52;5.87;;;1.37;;
7685;SDS011;3885;51.474;-2.576;2022-09-09T04:40:19;2.13;;;1.40;;
7685;SDS011;3885;51.474;-2.576;2022-09-09T04:42:47;2.70;;;1.43;;
7685;SDS011;3885;51.474;-2.576;2022-09-09T04:45:15;1.20;;;1.10;;
7685;SDS011;3885;51.474;-2.576;2022-09-09T04:47:44;10.10;;;1.20;;
7685;SDS011;3885;51.474;-2.576;2022-09-09T04:50:11;0.97;;;0.90;;
7685;SDS011;3885;51.474;-2.576;2022-09-09T04:52:39;2.73;;;1.03;;
7685;SDS011;3885;51.474;-2.576;2022-09-09T04:55:06;7.00;;;1.50;;
7685;SDS011;3885;51.474;-2.576;2022-09-09T04:57:34;1.33;;;1.10;;
7685;SDS011;3885;51.474;-2.576;2022-09-09T05:00:02;2.13;;;1.30;;
7685;SDS011;3885;51.474;-2.576;2022-09-09T05:02:30;2.17;;;0.83;;
7685;SDS011;3885;51.474;-2.576;2022-09-09T05:04:59;1.57;;;0.90;;
7685;SDS011;3885;51.474;-2.576;2022-09-09T05:07:26;1.67;;;1.40;;
7685;SDS011;3885;51.474;-2.576;2022-09-09T05:09:54;2.43;;;1.07;;
7685;SDS011;3885;51.474;-2.576;2022-09-09T05:12:21;4.37;;;1.27;;
7685;SDS011;3885;51.474;-2.576;2022-09-09T05:14:49;3.00;;;1.00;;
7685;SDS011;3885;51.474;-2.576;2022-09-09T05:17:16;1.20;;;1.10;;
7685;SDS011;3885;51.474;-2.576;2022-09-09T05:19:43;0.93;;;0.93;;
7685;SDS011;3885;51.474;-2.576;2022-09-09T05:22:12;2.90;;;1.10;;
7685;SDS011;3885;51.474;-2.576;2022-09-09T05:24:39;1.20;;;1.10;;
7685;SDS011;3885;51.474;-2.576;2022-09-09T05:27:07;1.30;;;1.20;;
7685;SDS011;3885;51.474;-2.576;2022-09-09T05:29:37;6.63;;;1.00;;
7685;SDS011;3885;51.474;-2.576;2022-09-09T05:32:06;0.90;;;0.80;;
7685;SDS011;3885;51.474;-2.576;2022-09-09T05:34:35;0.90;;;0.90;;
7685;SDS011;3885;51.474;-2.576;2022-09-09T05:37:02;3.43;;;0.80;;
7685;SDS011;3885;51.474;-2.576;2022-09-09T05:39:31;1.37;;;1.00;;
7685;SDS011;3885;51.474;-2.576;2022-09-09T05:41:59;1.80;;;1.13;;
7685;SDS011;3885;51.474;-2.576;2022-09-09T05:44:26;2.03;;;1.17;;
7685;SDS011;3885;51.474;-2.576;2022-09-09T05:46:54;2.30;;;0.90;;
7685;SDS011;3885;51.474;-2.576;2022-09-09T05:49:23;1.10;;;0.80;;
7685;SDS011;3885;51.474;-2.576;2022-09-09T05:51:49;1.80;;;0.80;;
7685;SDS011;3885;51.474;-2.576;2022-09-09T05:54:17;3.97;;;0.97;;
7685;SDS011;3885;51.474;-2.576;2022-09-09T05:56:45;0.90;;;0.90;;
7685;SDS011;3885;51.474;-2.576;2022-09-09T05:59:14;0.97;;;0.87;;
7685;SDS011;3885;51.474;-2.576;2022-09-09T06:01:41;1.07;;;0.93;;
7685;SDS011;3885;51.474;-2.576;2022-09-09T06:04:10;1.33;;;0.90;;
7685;SDS011;3885;51.474;-2.576;2022-09-09T06:06:37;0.80;;;0.80;;
7685;SDS011;3885;51.474;-2.576;2022-09-09T06:09:05;3.60;;;0.90;;
7685;SDS011;3885;51.474;-2.576;2022-09-09T06:11:35;2.60;;;1.03;;
7685;SDS011;3885;51.474;-2.576;2022-09-09T06:14:04;1.10;;;1.00;;
7685;SDS011;3885;51.474;-2.576;2022-09-09T06:16:31;5.40;;;1.20;;
7685;SDS011;3885;51.474;-2.576;2022-09-09T06:18:59;1.10;;;1.00;;
7685;SDS011;3885;51.474;-2.576;2022-09-09T06:21:28;9.43;;;1.00;;
7685;SDS011;3885;51.474;-2.576;2022-09-09T06:23:56;1.10;;;1.00;;
7685;SDS011;3885;51.474;-2.576;2022-09-09T06:26:24;1.27;;;0.90;;
7685;SDS011;3885;51.474;-2.576;2022-09-09T06:28:52;0.97;;;0.97;;
7685;SDS011;3885;51.474;-2.576;2022-09-09T06:31:22;1.03;;;0.93;;
7685;SDS011;3885;51.474;-2.576;2022-09-09T06:33:49;2.40;;;1.00;;
7685;SDS011;3885;51.474;-2.576;2022-09-09T06:36:17;4.13;;;0.90;;
7685;SDS011;3885;51.474;-2.576;2022-09-09T06:38:45;1.67;;;1.10;;
7685;SDS011;3885;51.474;-2.576;2022-09-09T06:41:13;3.70;;;1.10;;
7685;SDS011;3885;51.474;-2.576;2022-09-09T06:43:41;3.83;;;1.10;;
7685;SDS011;3885;51.474;-2.576;2022-09-09T06:46:09;2.20;;;1.07;;
7685;SDS011;3885;51.474;-2.576;2022-09-09T06:48:39;1.10;;;1.00;;
7685;SDS011;3885;51.474;-2.576;2022-09-09T06:51:07;1.23;;;0.90;;
7685;SDS011;3885;51.474;-2.576;2022-09-09T06:53:36;0.70;;;0.70;;
7685;SDS011;3885;51.474;-2.576;2022-09-09T06:56:16;8.80;;;1.20;;
7685;SDS011;3885;51.474;-2.576;2022-09-09T06:58:44;6.47;;;1.30;;
7685;SDS011;3885;51.474;-2.576;2022-09-09T07:01:12;1.37;;;0.90;;
7685;SDS011;3885;51.474;-2.576;2022-09-09T07:03:41;3.33;;;1.00;;
7685;SDS011;3885;51.474;-2.576;2022-09-09T07:06:09;2.30;;;1.07;;
7685;SDS011;3885;51.474;-2.576;2022-09-09T07:08:40;1.47;;;0.93;;
7685;SDS011;3885;51.474;-2.576;2022-09-09T07:11:07;1.20;;;1.10;;
7685;SDS011;3885;51.474;-2.576;2022-09-09T07:13:36;4.70;;;1.10;;
7685;SDS011;3885;51.474;-2.576;2022-09-09T07:16:03;2.87;;;1.43;;
7685;SDS011;3885;51.474;-2.576;2022-09-09T07:18:31;5.83;;;1.50;;
7685;SDS011;3885;51.474;-2.576;2022-09-09T07:21:00;2.00;;;1.33;;
7685;SDS011;3885;51.474;-2.576;2022-09-09T07:23:27;1.37;;;0.90;;
7685;SDS011;3885;51.474;-2.576;2022-09-09T07:25:55;1.77;;;1.00;;
7685;SDS011;3885;51.474;-2.576;2022-09-09T07:28:22;1.60;;;1.30;;
7685;SDS011;3885;51.474;-2.576;2022-09-09T07:30:53;0.77;;;0.77;;
7685;SDS011;3885;51.474;-2.576;2022-09-09T07:33:20;8.20;;;1.40;;
7685;SDS011;3885;51.474;-2.576;2022-09-09T07:35:47;5.03;;;1.40;;
7685;SDS011;3885;51.474;-2.576;2022-09-09T07:38:16;4.50;;;1.27;;
7685;SDS011;3885;51.474;-2.576;2022-09-09T07:40:43;1.27;;;0.87;;
7685;SDS011;3885;51.474;-2.576;2022-09-09T07:43:11;2.73;;;0.83;;
7685;SDS011;3885;51.474;-2.576;2022-09-09T07:45:38;1.50;;;0.70;;
7685;SDS011;3885;51.474;-2.576;2022-09-09T07:48:05;2.17;;;0.90;;
7685;SDS011;3885;51.474;-2.576;2022-09-09T07:50:33;4.87;;;1.47;;
7685;SDS011;3885;51.474;-2.576;2022-09-09T07:53:00;2.17;;;1.20;;
7685;SDS011;3885;51.474;-2.576;2022-09-09T07:55:31;2.80;;;1.20;;
7685;SDS011;3885;51.474;-2.576;2022-09-09T07:57:58;4.77;;;1.03;;
7685;SDS011;3885;51.474;-2.576;2022-09-09T08:00:25;1.10;;;0.80;;
7685;SDS011;3885;51.474;-2.576;2022-09-09T08:02:53;10.70;;;0.97;;
7685;SDS011;3885;51.474;-2.576;2022-09-09T08:05:20;2.37;;;0.80;;
7685;SDS011;3885;51.474;-2.576;2022-09-09T08:07:48;1.17;;;0.80;;
7685;SDS011;3885;51.474;-2.576;2022-09-09T08:10:15;3.63;;;1.37;;
7685;SDS011;3885;51.474;-2.576;2022-09-09T08:12:44;5.07;;;1.53;;
7685;SDS011;3885;51.474;-2.576;2022-09-09T08:15:12;1.03;;;0.77;;
7685;SDS011;3885;51.474;-2.576;2022-09-09T08:17:39;2.30;;;0.90;;
7685;SDS011;3885;51.474;-2.576;2022-09-09T08:20:06;0.90;;;0.77;;
7685;SDS011;3885;51.474;-2.576;2022-09-09T08:22:34;1.63;;;0.60;;
7685;SDS011;3885;51.474;-2.576;2022-09-09T08:25:02;0.80;;;0.60;;
7685;SDS011;3885;51.474;-2.576;2022-09-09T08:27:31;1.33;;;0.80;;
7685;SDS011;3885;51.474;-2.576;2022-09-09T08:30:00;1.47;;;0.90;;
7685;SDS011;3885;51.474;-2.576;2022-09-09T08:32:27;2.50;;;0.73;;
7685;SDS011;3885;51.474;-2.576;2022-09-09T08:34:54;0.80;;;0.70;;
7685;SDS011;3885;51.474;-2.576;2022-09-09T08:37:22;0.70;;;0.70;;
7685;SDS011;3885;51.474;-2.576;2022-09-09T08:39:49;5.60;;;2.47;;
7685;SDS011;3885;51.474;-2.576;2022-09-09T08:42:19;2.17;;;0.83;;
7685;SDS011;3885;51.474;-2.576;2022-09-09T08:44:54;0.80;;;0.80;;
7685;SDS011;3885;51.474;-2.576;2022-09-09T08:47:26;0.80;;;0.60;;
7685;SDS011;3885;51.474;-2.576;2022-09-09T08:50:04;1.33;;;0.80;;
7685;SDS011;3885;51.474;-2.576;2022-09-09T08:52:37;0.90;;;0.60;;
7685;SDS011;3885;51.474;-2.576;2022-09-09T08:55:11;0.80;;;0.70;;
7685;SDS011;3885;51.474;-2.576;2022-09-09T08:57:40;3.27;;;0.70;;
7685;SDS011;3885;51.474;-2.576;2022-09-09T09:00:08;0.80;;;0.80;;
7685;SDS011;3885;51.474;-2.576;2022-09-09T09:02:39;2.73;;;0.80;;
7685;SDS011;3885;51.474;-2.576;2022-09-09T09:05:14;1.97;;;0.70;;
7685;SDS011;3885;51.474;-2.576;2022-09-09T09:07:50;3.27;;;1.10;;
7685;SDS011;3885;51.474;-2.576;2022-09-09T09:10:29;1.20;;;0.87;;
7685;SDS011;3885;51.474;-2.576;2022-09-09T09:13:00;6.73;;;0.70;;
7685;SDS011;3885;51.474;-2.576;2022-09-09T09:15:30;2.90;;;0.80;;
7685;SDS011;3885;51.474;-2.576;2022-09-09T09:18:03;2.70;;;0.97;;
7685;SDS011;3885;51.474;-2.576;2022-09-09T09:20:32;3.07;;;0.80;;
7685;SDS011;3885;51.474;-2.576;2022-09-09T09:23:01;2.53;;;1.00;;
7685;SDS011;3885;51.474;-2.576;2022-09-09T09:25:31;6.30;;;0.80;;
7685;SDS011;3885;51.474;-2.576;2022-09-09T09:28:00;0.77;;;0.60;;
7685;SDS011;3885;51.474;-2.576;2022-09-09T09:30:31;0.70;;;0.70;;
7685;SDS011;3885;51.474;-2.576;2022-09-09T09:33:05;0.73;;;0.60;;
7685;SDS011;3885;51.474;-2.576;2022-09-09T09:35:32;1.37;;;1.27;;
7685;SDS011;3885;51.474;-2.576;2022-09-09T09:37:59;0.93;;;0.63;;
7685;SDS011;3885;51.474;-2.576;2022-09-09T09:40:28;0.60;;;0.60;;
7685;SDS011;3885;51.474;-2.576;2022-09-09T09:42:57;1.00;;;0.80;;
7685;SDS011;3885;51.474;-2.576;2022-09-09T09:45:28;1.73;;;0.77;;
7685;SDS011;3885;51.474;-2.576;2022-09-09T09:48:00;0.90;;;0.80;;
7685;SDS011;3885;51.474;-2.576;2022-09-09T09:50:29;4.20;;;1.00;;
7685;SDS011;3885;51.474;-2.576;2022-09-09T09:52:57;0.80;;;0.80;;
7685;SDS011;3885;51.474;-2.576;2022-09-09T09:55:25;0.70;;;0.70;;
7685;SDS011;3885;51.474;-2.576;2022-09-09T09:58:00;1.90;;;0.80;;
7685;SDS011;3885;51.474;-2.576;2022-09-09T10:00:27;5.87;;;0.87;;
7685;SDS011;3885;51.474;-2.576;2022-09-09T10:02:54;1.93;;;0.80;;
7685;SDS011;3885;51.474;-2.576;2022-09-09T10:05:22;1.80;;;1.10;;
7685;SDS011;3885;51.474;-2.576;2022-09-09T10:08:01;1.23;;;0.80;;
7685;SDS011;3885;51.474;-2.576;2022-09-09T10:10:33;1.83;;;0.80;;
7685;SDS011;3885;51.474;-2.576;2022-09-09T10:13:05;5.53;;;0.80;;
7685;SDS011;3885;51.474;-2.576;2022-09-09T10:15:37;2.60;;;0.70;;
7685;SDS011;3885;51.474;-2.576;2022-09-09T10:18:09;2.10;;;0.70;;
7685;SDS011;3885;51.474;-2.576;2022-09-09T10:20:42;3.33;;;0.83;;
7685;SDS011;3885;51.474;-2.576;2022-09-09T10:23:18;1.80;;;1.00;;
7685;SDS011;3885;51.474;-2.576;2022-09-09T10:25:56;0.77;;;0.77;;
7685;SDS011;3885;51.474;-2.576;2022-09-09T10:28:41;1.70;;;0.80;;
7685;SDS011;3885;51.474;-2.576;2022-09-09T10:31:17;0.70;;;0.70;;
7685;SDS011;3885;51.474;-2.576;2022-09-09T10:33:49;1.07;;;0.77;;
7685;SDS011;3885;51.474;-2.576;2022-09-09T10:36:18;1.43;;;0.80;;
7685;SDS011;3885;51.474;-2.576;2022-09-09T10:38:50;0.67;;;0.67;;
7685;SDS011;3885;51.474;-2.576;2022-09-09T10:41:19;1.53;;;1.13;;
7685;SDS011;3885;51.474;-2.576;2022-09-09T10:44:03;2.10;;;0.97;;
7685;SDS011;3885;51.474;-2.576;2022-09-09T10:46:35;8.30;;;0.90;;
7685;SDS011;3885;51.474;-2.576;2022-09-09T10:49:07;0.90;;;0.60;;
7685;SDS011;3885;51.474;-2.576;2022-09-09T10:51:39;0.70;;;0.70;;
7685;SDS011;3885;51.474;-2.576;2022-09-09T10:54:12;2.03;;;0.83;;
7685;SDS011;3885;51.474;-2.576;2022-09-09T10:56:44;12.10;;;0.80;;
7685;SDS011;3885;51.474;-2.576;2022-09-09T10:59:16;0.70;;;0.70;;
7685;SDS011;3885;51.474;-2.576;2022-09-09T11:01:47;1.97;;;0.80;;
7685;SDS011;3885;51.474;-2.576;2022-09-09T11:04:15;6.10;;;1.00;;
7685;SDS011;3885;51.474;-2.576;2022-09-09T11:06:44;0.77;;;0.77;;
7685;SDS011;3885;51.474;-2.576;2022-09-09T11:09:17;0.80;;;0.80;;
7685;SDS011;3885;51.474;-2.576;2022-09-09T11:11:46;1.27;;;0.73;;
7685;SDS011;3885;51.474;-2.576;2022-09-09T11:14:15;3.23;;;0.80;;
7685;SDS011;3885;51.474;-2.576;2022-09-09T11:16:47;3.23;;;1.00;;
7685;SDS011;3885;51.474;-2.576;2022-09-09T11:19:18;5.03;;;1.17;;
7685;SDS011;3885;51.474;-2.576;2022-09-09T11:21:48;3.27;;;1.00;;
7685;SDS011;3885;51.474;-2.576;2022-09-09T11:24:20;1.63;;;1.37;;
7685;SDS011;3885;51.474;-2.576;2022-09-09T11:26:50;15.33;;;1.30;;
7685;SDS011;3885;51.474;-2.576;2022-09-09T11:29:32;2.10;;;0.90;;
7685;SDS011;3885;51.474;-2.576;2022-09-09T11:32:06;0.83;;;0.80;;
7685;SDS011;3885;51.474;-2.576;2022-09-09T11:34:39;2.17;;;0.97;;
7685;SDS011;3885;51.474;-2.576;2022-09-09T11:37:17;1.13;;;0.90;;
7685;SDS011;3885;51.474;-2.576;2022-09-09T11:40:00;2.00;;;0.87;;
7685;SDS011;3885;51.474;-2.576;2022-09-09T11:42:34;1.20;;;0.80;;
7685;SDS011;3885;51.474;-2.576;2022-09-09T11:45:08;1.37;;;0.90;;
7685;SDS011;3885;51.474;-2.576;2022-09-09T11:47:38;2.60;;;1.10;;
7685;SDS011;3885;51.474;-2.576;2022-09-09T11:50:10;2.00;;;0.60;;
7685;SDS011;3885;51.474;-2.576;2022-09-09T11:52:39;1.13;;;0.80;;
7685;SDS011;3885;51.474;-2.576;2022-09-09T11:55:19;1.03;;;1.03;;
7685;SDS011;3885;51.474;-2.576;2022-09-09T11:57:56;0.80;;;0.70;;
7685;SDS011;3885;51.474;-2.576;2022-09-09T12:00:28;0.60;;;0.60;;
7685;SDS011;3885;51.474;-2.576;2022-09-09T12:02:57;1.73;;;0.90;;
7685;SDS011;3885;51.474;-2.576;2022-09-09T12:05:25;1.13;;;0.83;;
7685;SDS011;3885;51.474;-2.576;2022-09-09T12:08:02;4.23;;;1.20;;
7685;SDS011;3885;51.474;-2.576;2022-09-09T12:10:32;0.80;;;0.80;;
7685;SDS011;3885;51.474;-2.576;2022-09-09T12:13:07;2.87;;;1.40;;
7685;SDS011;3885;51.474;-2.576;2022-09-09T12:15:35;1.80;;;1.03;;
7685;SDS011;3885;51.474;-2.576;2022-09-09T12:18:14;2.43;;;1.13;;
7685;SDS011;3885;51.474;-2.576;2022-09-09T12:20:42;3.40;;;1.10;;
7685;SDS011;3885;51.474;-2.576;2022-09-09T12:23:22;1.17;;;1.00;;
7685;SDS011;3885;51.474;-2.576;2022-09-09T12:25:57;2.50;;;1.47;;
7685;SDS011;3885;51.474;-2.576;2022-09-09T12:28:36;6.43;;;1.63;;
7685;SDS011;3885;51.474;-2.576;2022-09-09T12:31:08;1.50;;;0.80;;
7685;SDS011;3885;51.474;-2.576;2022-09-09T12:33:42;2.00;;;1.10;;
7685;SDS011;3885;51.474;-2.576;2022-09-09T12:36:12;3.07;;;0.80;;
7685;SDS011;3885;51.474;-2.576;2022-09-09T12:38:41;1.13;;;0.83;;
7685;SDS011;3885;51.474;-2.576;2022-09-09T12:41:17;1.60;;;1.10;;
7685;SDS011;3885;51.474;-2.576;2022-09-09T12:43:45;1.37;;;0.90;;
7685;SDS011;3885;51.474;-2.576;2022-09-09T12:46:15;0.90;;;0.80;;
7685;SDS011;3885;51.474;-2.576;2022-09-09T12:48:50;2.63;;;0.90;;
7685;SDS011;3885;51.474;-2.576;2022-09-09T12:51:19;0.70;;;0.70;;
7685;SDS011;3885;51.474;-2.576;2022-09-09T12:53:50;1.87;;;1.10;;
7685;SDS011;3885;51.474;-2.576;2022-09-09T12:56:20;2.00;;;1.03;;
7685;SDS011;3885;51.474;-2.576;2022-09-09T12:58:48;2.70;;;1.10;;
7685;SDS011;3885;51.474;-2.576;2022-09-09T13:01:18;1.87;;;1.30;;
7685;SDS011;3885;51.474;-2.576;2022-09-09T13:03:47;2.40;;;1.00;;
7685;SDS011;3885;51.474;-2.576;2022-09-09T13:06:18;2.40;;;1.00;;
7685;SDS011;3885;51.474;-2.576;2022-09-09T13:08:47;1.90;;;1.00;;
7685;SDS011;3885;51.474;-2.576;2022-09-09T13:11:15;1.30;;;1.00;;
7685;SDS011;3885;51.474;-2.576;2022-09-09T13:13:49;1.23;;;1.00;;
7685;SDS011;3885;51.474;-2.576;2022-09-09T13:16:18;2.10;;;1.60;;
7685;SDS011;3885;51.474;-2.576;2022-09-09T13:18:46;3.83;;;1.27;;
7685;SDS011;3885;51.474;-2.576;2022-09-09T13:21:14;5.73;;;2.17;;
7685;SDS011;3885;51.474;-2.576;2022-09-09T13:23:42;2.03;;;1.20;;
7685;SDS011;3885;51.474;-2.576;2022-09-09T13:26:21;4.30;;;1.70;;
7685;SDS011;3885;51.474;-2.576;2022-09-09T13:28:50;4.53;;;2.20;;
7685;SDS011;3885;51.474;-2.576;2022-09-09T13:31:19;2.57;;;1.50;;
7685;SDS011;3885;51.474;-2.576;2022-09-09T13:33:47;3.03;;;1.57;;
7685;SDS011;3885;51.474;-2.576;2022-09-09T13:36:14;1.00;;;0.93;;
7685;SDS011;3885;51.474;-2.576;2022-09-09T13:38:52;4.20;;;1.83;;
7685;SDS011;3885;51.474;-2.576;2022-09-09T13:41:20;3.70;;;1.90;;
7685;SDS011;3885;51.474;-2.576;2022-09-09T13:43:48;5.07;;;1.23;;
7685;SDS011;3885;51.474;-2.576;2022-09-09T13:46:24;6.30;;;2.10;;
7685;SDS011;3885;51.474;-2.576;2022-09-09T13:48:56;4.97;;;1.80;;
7685;SDS011;3885;51.474;-2.576;2022-09-09T13:51:28;2.10;;;1.50;;
7685;SDS011;3885;51.474;-2.576;2022-09-09T13:53:56;0.90;;;0.90;;
7685;SDS011;3885;51.474;-2.576;2022-09-09T13:56:25;3.53;;;1.10;;
7685;SDS011;3885;51.474;-2.576;2022-09-09T13:58:52;1.30;;;1.20;;
7685;SDS011;3885;51.474;-2.576;2022-09-09T14:01:19;2.53;;;1.20;;
7685;SDS011;3885;51.474;-2.576;2022-09-09T14:03:49;3.00;;;1.27;;
7685;SDS011;3885;51.474;-2.576;2022-09-09T14:06:18;3.70;;;1.13;;
7685;SDS011;3885;51.474;-2.576;2022-09-09T14:08:46;4.83;;;1.40;;
7685;SDS011;3885;51.474;-2.576;2022-09-09T14:11:15;1.13;;;1.00;;
7685;SDS011;3885;51.474;-2.576;2022-09-09T14:13:42;5.33;;;2.67;;
7685;SDS011;3885;51.474;-2.576;2022-09-09T14:16:09;3.13;;;1.20;;
7685;SDS011;3885;51.474;-2.576;2022-09-09T14:18:37;2.10;;;1.40;;
7685;SDS011;3885;51.474;-2.576;2022-09-09T14:21:05;1.37;;;1.20;;
7685;SDS011;3885;51.474;-2.576;2022-09-09T14:23:34;3.17;;;1.43;;
7685;SDS011;3885;51.474;-2.576;2022-09-09T14:26:01;1.43;;;0.93;;
7685;SDS011;3885;51.474;-2.576;2022-09-09T14:28:28;4.47;;;1.20;;
7685;SDS011;3885;51.474;-2.576;2022-09-09T14:30:58;1.80;;;1.10;;
7685;SDS011;3885;51.474;-2.576;2022-09-09T14:33:25;1.43;;;0.93;;
7685;SDS011;3885;51.474;-2.576;2022-09-09T14:35:55;3.23;;;1.20;;
7685;SDS011;3885;51.474;-2.576;2022-09-09T14:38:24;1.67;;;1.20;;
7685;SDS011;3885;51.474;-2.576;2022-09-09T14:40:51;2.13;;;1.20;;
7685;SDS011;3885;51.474;-2.576;2022-09-09T14:43:18;9.13;;;1.30;;
7685;SDS011;3885;51.474;-2.576;2022-09-09T14:45:46;1.80;;;1.70;;
7685;SDS011;3885;51.474;-2.576;2022-09-09T14:48:16;4.60;;;1.33;;
7685;SDS011;3885;51.474;-2.576;2022-09-09T14:50:44;1.40;;;1.30;;
7685;SDS011;3885;51.474;-2.576;2022-09-09T14:53:11;7.10;;;1.27;;
7685;SDS011;3885;51.474;-2.576;2022-09-09T14:55:39;1.03;;;1.03;;
7685;SDS011;3885;51.474;-2.576;2022-09-09T14:58:07;5.40;;;1.37;;
7685;SDS011;3885;51.474;-2.576;2022-09-09T15:00:35;1.30;;;1.20;;
7685;SDS011;3885;51.474;-2.576;2022-09-09T15:03:02;3.37;;;1.30;;
7685;SDS011;3885;51.474;-2.576;2022-09-09T15:05:29;2.60;;;1.30;;
7685;SDS011;3885;51.474;-2.576;2022-09-09T15:07:56;1.67;;;0.90;;
7685;SDS011;3885;51.474;-2.576;2022-09-09T15:10:24;1.10;;;0.70;;
7685;SDS011;3885;51.474;-2.576;2022-09-09T15:12:54;2.20;;;0.73;;
7685;SDS011;3885;51.474;-2.576;2022-09-09T15:15:21;0.90;;;0.73;;